Time;durP1;ratioP1;P1;durP2;ratioP2;P2;SDS_P1;SDS_P2;PMS_P1;PMS_P2;Temp;Humidity;BMP_temperature;BMP_pressure;BME280_temperature;BME280_humidity;BME280_pressure;Samples;Min_cycle;Max_cycle;Signal;HPM_P1;HPM_P2
2023/12/10 00:00:56;;;;;;;9.30;2.97;;;9.60;99.90;;;;;;5091460;28;20540;-80
2023/12/10 00:03:31;;;;;;;9.10;2.97;;;9.70;99.90;;;;;;5091817;28;20440;-80
2023/12/10 00:06:09;;;;;;;8.33;2.93;;;9.70;99.90;;;;;;5110065;28;20478;-78
2023/12/10 00:08:42;;;;;;;12.20;3.10;;;9.70;99.90;;;;;;5111451;28;20939;-79
2023/12/10 00:11:17;;;;;;;12.03;2.93;;;9.70;99.90;;;;;;5110534;28;21046;-78
2023/12/10 00:14:03;;;;;;;11.23;3.07;;;9.70;99.90;;;;;;5111378;28;20455;-80
2023/12/10 00:16:39;;;;;;;12.57;3.20;;;9.70;99.90;;;;;;5111196;28;20468;-79
2023/12/10 00:19:09;;;;;;;9.37;3.10;;;9.70;99.90;;;;;;5098307;28;20451;-78
2023/12/10 00:21:50;;;;;;;11.93;3.30;;;9.70;99.90;;;;;;5098843;28;21023;-79
2023/12/10 00:24:25;;;;;;;19.43;3.87;;;9.70;99.90;;;;;;5100107;28;20473;-78
2023/12/10 00:27:01;;;;;;;8.23;3.23;;;9.70;99.90;;;;;;5100799;28;20561;-80
2023/12/10 00:29:39;;;;;;;6.47;2.57;;;9.70;99.90;;;;;;5100675;28;21033;-80
2023/12/10 00:32:06;;;;;;;12.63;4.00;;;9.70;99.90;;;;;;5104005;28;20537;-79
2023/12/10 00:34:40;;;;;;;9.67;4.20;;;9.70;99.90;;;;;;5102488;28;20450;-78
2023/12/10 00:37:22;;;;;;;13.77;3.47;;;9.60;99.90;;;;;;5104749;28;20598;-78
2023/12/10 00:40:03;;;;;;;14.27;3.50;;;9.60;99.90;;;;;;5102176;28;20467;-79
2023/12/10 00:42:59;;;;;;;;;;;;;;;;;;;;;
2023/12/10 00:45:34;;;;;;;14.57;4.17;;;9.70;99.90;;;;;;5101211;28;20454;-79
2023/12/10 00:48:07;;;;;;;17.47;4.10;;;9.70;99.90;;;;;;5099552;28;20793;-79
2023/12/10 00:50:51;;;;;;;16.13;3.83;;;9.60;99.90;;;;;;5099389;28;20473;-78
2023/12/10 00:56:31;;;;;;;18.90;3.47;;;9.60;99.90;;;;;;5100242;28;20527;-80
2023/12/10 00:59:16;;;;;;;15.67;3.90;;;9.70;99.90;;;;;;5101203;28;20444;-78
2023/12/10 01:02:29;;;;;;;13.63;4.13;;;9.70;99.90;;;;;;5102028;28;20418;-78
2023/12/10 01:05:49;;;;;;;19.60;4.07;;;9.70;99.90;;;;;;5093704;28;20446;-81
2023/12/10 01:08:56;;;;;;;17.53;4.77;;;9.70;99.90;;;;;;5035133;28;20466;-78
2023/12/10 01:11:51;;;;;;;8.63;3.50;;;9.70;99.90;;;;;;5101996;28;20470;-80
2023/12/10 01:17:45;;;;;;;13.27;4.50;;;9.70;99.90;;;;;;5019393;28;21014;-80
2023/12/10 01:20:48;;;;;;;15.93;4.93;;;9.40;99.90;;;;;;5018679;28;20869;-81
2023/12/10 01:23:38;;;;;;;13.87;4.30;;;9.70;99.90;;;;;;5062658;28;20479;-80
2023/12/10 01:26:58;;;;;;;18.43;4.57;;;9.70;99.90;;;;;;5101084;28;20475;-80
2023/12/10 01:29:55;;;;;;;14.93;4.37;;;9.60;99.90;;;;;;5087162;28;20468;-79
2023/12/10 01:47:12;;;;;;;;;;;;;;;;;;;;;
2023/12/10 01:53:44;;;;;;;20.73;4.73;;;9.50;99.90;;;;;;5090416;28;20527;-80
2023/12/10 02:03:55;;;;;;;;;;;;;;;;;;;;;
2023/12/10 02:06:58;;;;;;;17.43;4.30;;;9.60;99.90;;;;;;5030488;28;21048;-81
2023/12/10 02:09:45;;;;;;;16.87;4.10;;;9.60;99.90;;;;;;5082604;28;20482;-80
2023/12/10 02:12:57;;;;;;;12.50;4.23;;;9.60;99.90;;;;;;5082518;28;20478;-80
2023/12/10 02:19:36;;;;;;;;;;;;;;;;;;;;;
2023/12/10 02:26:20;;;;;;;18.00;5.00;;;9.60;99.90;;;;;;5004390;28;20451;-80
2023/12/10 02:29:36;;;;;;;18.40;4.10;;;9.60;99.90;;;;;;5053649;28;20511;-79
2023/12/10 02:42:54;;;;;;;12.63;4.23;;;9.50;99.90;;;;;;4927597;29;20885;-77
2023/12/10 02:45:43;;;;;;;10.13;3.20;;;9.40;99.90;;;;;;4964572;29;20482;-79
2023/12/10 02:48:40;;;;;;;10.30;2.30;;;9.40;99.90;;;;;;4959795;29;20520;-79
2023/12/10 02:54:35;;;;;;;4.93;2.50;;;8.90;99.90;;;;;;4944101;29;20481;-78
2023/12/10 02:57:34;;;;;;;13.80;2.10;;;8.80;99.90;;;;;;4959712;29;20541;-77
2023/12/10 03:00:32;;;;;;;4.73;2.47;;;8.70;99.90;;;;;;5035192;28;20471;-78
2023/12/10 03:06:57;;;;;;;3.50;1.60;;;8.60;99.90;;;;;;5080550;28;20465;-78
2023/12/10 03:13:08;;;;;;;4.30;2.20;;;8.50;99.90;;;;;;4983232;28;20450;-78
2023/12/10 03:16:18;;;;;;;7.23;2.40;;;8.50;99.90;;;;;;4996336;28;20501;-78
2023/12/10 03:19:16;;;;;;;11.53;2.77;;;8.50;99.90;;;;;;5084019;28;20476;-78
2023/12/10 03:22:01;;;;;;;5.90;2.50;;;8.40;99.90;;;;;;5047436;28;20460;-79
2023/12/10 03:24:50;;;;;;;7.47;2.33;;;8.40;99.90;;;;;;5083395;28;20479;-80
2023/12/10 03:27:49;;;;;;;5.03;2.50;;;8.40;99.90;;;;;;5081125;28;20472;-78
2023/12/10 03:30:33;;;;;;;9.07;2.77;;;8.40;99.90;;;;;;5081747;28;20477;-78
2023/12/10 03:33:49;;;;;;;7.30;2.00;;;8.40;99.90;;;;;;5082045;28;20448;-78
2023/12/10 03:37:26;;;;;;;;;;;;;;;;;;;;;
2023/12/10 03:40:38;;;;;;;9.33;2.50;;;8.30;99.90;;;;;;5081287;28;20473;-78
2023/12/10 03:43:30;;;;;;;6.00;2.50;;;8.30;99.90;;;;;;5073144;28;20458;-77
2023/12/10 03:46:46;;;;;;;5.60;2.37;;;8.30;99.90;;;;;;5081872;28;20441;-78
2023/12/10 03:53:07;;;;;;;9.13;2.50;;;8.30;99.90;;;;;;5064124;28;20453;-78
2023/12/10 04:10:05;;;;;;;7.07;2.80;;;8.40;99.90;;;;;;4981457;28;20474;-78
2023/12/10 04:13:20;;;;;;;10.30;3.13;;;8.30;99.90;;;;;;5043209;28;20450;-80
2023/12/10 04:26:40;;;;;;;12.83;2.90;;;8.30;99.90;;;;;;4983532;28;20518;-80
2023/12/10 04:42:56;;;;;;;11.20;3.30;;;8.30;99.90;;;;;;4997725;28;20543;-81
2023/12/10 04:49:41;;;;;;;11.23;3.20;;;8.30;99.90;;;;;;4975662;28;20535;-80
2023/12/10 04:59:14;;;;;;;13.33;3.57;;;8.40;99.90;;;;;;5084348;28;20565;-82
2023/12/10 05:02:39;;;;;;;;;;;;;;;;;;;;;
2023/12/10 05:09:16;;;;;;;;;;;;;;;;;;;;;
2023/12/10 05:19:33;;;;;;;10.50;2.97;;;8.50;99.90;;;;;;5049519;28;20482;-81
2023/12/10 05:22:24;;;;;;;12.07;3.50;;;8.50;99.90;;;;;;5084205;28;20601;-81
2023/12/10 05:25:35;;;;;;;9.03;2.73;;;8.50;99.90;;;;;;5091301;28;20474;-81
2023/12/10 05:28:38;;;;;;;10.97;3.80;;;8.50;99.90;;;;;;5113518;28;20487;-79
2023/12/10 05:31:32;;;;;;;5.83;2.90;;;8.50;99.90;;;;;;5110508;28;20477;-81
2023/12/10 05:34:18;;;;;;;10.83;3.80;;;8.50;99.90;;;;;;5106413;28;20432;-81
2023/12/10 05:37:04;;;;;;;10.00;4.40;;;8.50;99.90;;;;;;5108314;28;20423;-81
2023/12/10 05:39:57;;;;;;;13.30;3.00;;;8.50;99.90;;;;;;5110504;28;20452;-81
2023/12/10 05:50:49;;;;;;;9.77;2.90;;;8.50;99.90;;;;;;4897258;29;20568;-81
2023/12/10 05:59:46;;;;;;;9.40;2.97;;;8.60;99.90;;;;;;4839762;29;20476;-80
2023/12/10 06:02:47;;;;;;;8.53;3.47;;;8.60;99.90;;;;;;4869949;29;20453;-81
2023/12/10 06:12:54;;;;;;;;;;;;;;;;;;;;;
2023/12/10 06:31:54;;;;;;;9.37;2.60;;;8.70;99.90;;;;;;5050044;28;20487;-81
2023/12/10 06:38:05;;;;;;;14.53;3.10;;;8.60;99.90;;;;;;5053629;28;20435;-82
2023/12/10 06:41:08;;;;;;;10.10;3.07;;;8.60;99.90;;;;;;5092140;28;20467;-81
2023/12/10 06:51:45;;;;;;;11.17;2.80;;;8.30;99.90;;;;;;4888576;29;20964;-80
2023/12/10 06:54:44;;;;;;;15.60;3.47;;;8.60;99.90;;;;;;5003028;28;20624;-80
2023/12/10 06:57:36;;;;;;;8.07;2.50;;;8.60;99.90;;;;;;5003765;28;20449;-80
2023/12/10 07:00:40;;;;;;;9.10;2.80;;;8.60;99.90;;;;;;5021508;28;20447;-82
2023/12/10 07:03:39;;;;;;;5.97;2.20;;;8.60;99.90;;;;;;5019819;28;20467;-82
2023/12/10 07:07:01;;;;;;;10.43;2.80;;;8.60;99.90;;;;;;5049514;28;20440;-82
2023/12/10 07:09:55;;;;;;;13.13;2.90;;;8.60;99.90;;;;;;5103128;28;20512;-82
2023/12/10 07:12:54;;;;;;;11.00;2.67;;;8.60;99.90;;;;;;5103715;28;20452;-82
2023/12/10 07:16:20;;;;;;;;;;;;;;;;;;;;;
2023/12/10 07:18:58;;;;;;;11.53;3.73;;;8.60;99.90;;;;;;5093120;28;20438;-81
2023/12/10 07:21:46;;;;;;;12.57;3.10;;;8.60;99.90;;;;;;5104062;28;20443;-81
2023/12/10 07:24:33;;;;;;;8.63;2.83;;;8.60;99.90;;;;;;5103594;28;20958;-80
2023/12/10 07:27:32;;;;;;;9.73;2.67;;;8.50;99.90;;;;;;5104671;28;20947;-82
2023/12/10 07:33:20;;;;;;;8.70;2.83;;;8.50;99.90;;;;;;5106695;28;20430;-81
2023/12/10 07:39:04;;;;;;;14.43;3.10;;;8.40;99.90;;;;;;5086095;28;20441;-81
2023/12/10 07:41:42;;;;;;;6.23;2.30;;;8.40;99.90;;;;;;5098712;28;20532;-79
2023/12/10 07:44:55;;;;;;;10.83;3.40;;;8.40;99.90;;;;;;5105322;28;20440;-79
2023/12/10 07:47:38;;;;;;;8.30;2.70;;;8.40;99.90;;;;;;5103610;28;20452;-82
2023/12/10 07:54:05;;;;;;;9.63;2.93;;;8.40;99.90;;;;;;5087422;28;20439;-79
2023/12/10 07:57:06;;;;;;;12.67;3.40;;;8.40;99.90;;;;;;5101973;28;20453;-81
2023/12/10 08:00:21;;;;;;;8.67;2.70;;;8.40;99.90;;;;;;5104131;28;20495;-80
2023/12/10 08:03:21;;;;;;;8.90;2.70;;;8.40;99.90;;;;;;5103017;28;20539;-81
2023/12/10 08:06:22;;;;;;;9.60;2.67;;;8.40;99.90;;;;;;5102376;28;20603;-81
2023/12/10 08:09:21;;;;;;;9.80;3.03;;;8.40;99.90;;;;;;5074304;28;20556;-80
2023/12/10 08:12:13;;;;;;;11.13;3.50;;;8.40;99.90;;;;;;5084281;28;20451;-79
2023/12/10 08:18:16;;;;;;;7.23;3.00;;;8.40;99.90;;;;;;5041998;28;20510;-80
2023/12/10 08:21:10;;;;;;;12.93;3.70;;;8.40;99.90;;;;;;5082656;28;20472;-81
2023/12/10 08:23:55;;;;;;;9.53;3.80;;;8.50;99.90;;;;;;5084341;28;20418;-81
2023/12/10 08:27:01;;;;;;;8.30;3.10;;;8.50;99.90;;;;;;5103268;28;20450;-81
2023/12/10 08:32:49;;;;;;;9.10;3.60;;;8.60;99.90;;;;;;5104534;28;20931;-81
2023/12/10 08:35:19;;;;;;;8.10;2.77;;;8.60;99.90;;;;;;5104167;28;20444;-81
2023/12/10 08:37:47;;;;;;;8.80;3.10;;;8.60;99.90;;;;;;5104737;28;20784;-80
2023/12/10 08:40:44;;;;;;;13.50;3.57;;;8.70;99.90;;;;;;5105072;28;20905;-81
2023/12/10 08:43:12;;;;;;;12.17;3.20;;;8.70;99.90;;;;;;5104895;28;20467;-81
2023/12/10 08:45:51;;;;;;;11.40;3.60;;;8.90;99.90;;;;;;5104043;28;20860;-81
2023/12/10 08:48:19;;;;;;;7.40;2.80;;;8.80;99.90;;;;;;5105363;28;20494;-79
2023/12/10 08:51:06;;;;;;;7.70;3.93;;;8.90;99.90;;;;;;5104693;28;20466;-81
2023/12/10 08:53:42;;;;;;;6.50;2.93;;;8.90;99.90;;;;;;5104911;28;20474;-80
2023/12/10 08:56:39;;;;;;;5.70;3.10;;;8.90;99.90;;;;;;5106378;28;20446;-79
2023/12/10 08:59:09;;;;;;;11.67;2.83;;;8.90;99.90;;;;;;5106864;28;20450;-79
2023/12/10 09:01:46;;;;;;;7.07;2.97;;;8.90;99.90;;;;;;5105606;28;20788;-81
2023/12/10 09:04:18;;;;;;;7.13;2.93;;;9.10;99.90;;;;;;5104386;28;20434;-81
2023/12/10 09:06:52;;;;;;;9.73;2.90;;;9.30;99.90;;;;;;5105658;28;20447;-81
2023/12/10 09:09:43;;;;;;;11.43;2.80;;;9.50;99.90;;;;;;5104911;28;20470;-81
2023/12/10 09:12:27;;;;;;;10.17;3.93;;;9.70;99.90;;;;;;5105085;28;20963;-80
2023/12/10 09:14:59;;;;;;;8.97;2.93;;;9.90;99.90;;;;;;5093521;28;20527;-79
2023/12/10 09:17:40;;;;;;;7.57;3.30;;;10.20;99.90;;;;;;5084111;28;20484;-81
2023/12/10 09:20:30;;;;;;;8.33;2.80;;;10.30;99.90;;;;;;5084552;28;20893;-81
2023/12/10 09:23:03;;;;;;;10.83;2.30;;;10.60;99.90;;;;;;5080460;28;20445;-80
2023/12/10 09:25:31;;;;;;;6.10;2.67;;;10.80;99.90;;;;;;5101603;28;20531;-81
2023/12/10 09:28:05;;;;;;;12.13;2.57;;;10.90;99.90;;;;;;5103791;28;20439;-83
2023/12/10 09:30:40;;;;;;;11.43;2.87;;;11.00;99.90;;;;;;5104133;28;20960;-80
2023/12/10 09:33:29;;;;;;;8.10;2.13;;;10.80;99.90;;;;;;5104902;28;20501;-81
2023/12/10 09:36:05;;;;;;;8.17;2.57;;;10.70;99.90;;;;;;5105127;28;20428;-80
2023/12/10 09:38:47;;;;;;;11.43;2.83;;;10.60;99.90;;;;;;5103946;28;20442;-79
2023/12/10 09:41:24;;;;;;;6.87;2.77;;;10.60;99.90;;;;;;5105512;28;20471;-80
2023/12/10 09:43:53;;;;;;;7.23;2.40;;;10.70;99.90;;;;;;5097276;28;20463;-80
2023/12/10 09:46:41;;;;;;;7.57;2.70;;;10.70;99.90;;;;;;5081806;28;20455;-81
2023/12/10 09:49:14;;;;;;;10.10;3.13;;;10.70;99.90;;;;;;5081604;28;20504;-80
2023/12/10 09:52:02;;;;;;;6.57;2.40;;;10.70;99.90;;;;;;5080349;28;20444;-80
2023/12/10 09:54:53;;;;;;;9.50;2.63;;;10.60;99.90;;;;;;5098397;28;20450;-79
2023/12/10 09:57:32;;;;;;;3.50;1.70;;;10.60;99.90;;;;;;5103396;28;20447;-80
2023/12/10 10:00:16;;;;;;;4.97;2.37;;;10.50;99.90;;;;;;5102800;28;20551;-82
2023/12/10 10:03:12;;;;;;;2.40;1.27;;;10.50;99.90;;;;;;5080755;28;20471;-81
2023/12/10 10:06:03;;;;;;;6.83;2.60;;;10.40;99.90;;;;;;5080945;28;20547;-80
2023/12/10 10:08:44;;;;;;;5.13;1.97;;;10.50;99.90;;;;;;5091348;28;20546;-81
2023/12/10 10:11:22;;;;;;;5.90;2.30;;;10.40;99.90;;;;;;5103207;28;20467;-81
2023/12/10 10:14:12;;;;;;;6.70;1.90;;;10.30;99.90;;;;;;5112159;28;20451;-79
2023/12/10 10:17:04;;;;;;;8.07;2.17;;;10.20;99.90;;;;;;5111389;28;20510;-80
2023/12/10 10:19:55;;;;;;;5.70;2.30;;;10.20;99.90;;;;;;5123502;22;20933;-80
2023/12/10 10:29:38;;;;;;;;;;;;;;;;;;;;;
2023/12/10 10:35:32;;;;;;;;;;;;;;;;;;;;;
2023/12/10 10:38:24;;;;;;;6.70;2.30;;;10.10;99.90;;;;;;5068040;28;20448;-81
2023/12/10 10:41:24;;;;;;;4.03;2.00;;;10.10;99.90;;;;;;5049185;28;20474;-80
2023/12/10 10:44:13;;;;;;;6.40;2.37;;;10.00;99.90;;;;;;5065419;28;20491;-80
2023/12/10 10:46:53;;;;;;;6.77;2.53;;;10.10;99.90;;;;;;5048904;28;20485;-81
2023/12/10 10:49:44;;;;;;;7.50;2.37;;;10.20;99.90;;;;;;5063325;28;20470;-82
2023/12/10 10:52:21;;;;;;;6.50;2.63;;;10.10;99.90;;;;;;5058931;28;20442;-78
2023/12/10 10:55:25;;;;;;;4.50;2.53;;;10.30;99.90;;;;;;5052171;28;20457;-80
2023/12/10 10:58:53;;;;;;;8.63;2.70;;;10.20;99.90;;;;;;5028925;28;20442;-82
2023/12/10 11:01:55;;;;;;;5.93;2.50;;;10.20;99.90;;;;;;5050939;28;20459;-79
2023/12/10 11:04:47;;;;;;;7.47;2.80;;;10.20;99.90;;;;;;5061780;28;20468;-81
2023/12/10 11:07:31;;;;;;;3.50;1.73;;;10.10;99.90;;;;;;5057276;28;20429;-80
2023/12/10 11:14:20;;;;;;;6.93;2.63;;;10.00;99.90;;;;;;5038176;28;20553;-82
2023/12/10 11:21:15;;;;;;;10.00;5.60;;;10.00;99.90;;;;;;4973072;28;20451;-81
2023/12/10 11:23:57;;;;;;;8.17;1.93;;;10.10;99.90;;;;;;5058724;28;20449;-79
2023/12/10 11:26:29;;;;;;;10.17;2.73;;;10.10;99.90;;;;;;5067079;28;20480;-79
2023/12/10 11:29:07;;;;;;;7.97;2.30;;;10.20;99.90;;;;;;5057352;28;20465;-79
2023/12/10 11:31:42;;;;;;;8.17;3.03;;;10.20;99.90;;;;;;5057495;28;20555;-79
2023/12/10 11:34:20;;;;;;;9.43;3.03;;;10.10;99.90;;;;;;5058609;28;20446;-79
2023/12/10 11:36:58;;;;;;;7.10;2.07;;;10.20;99.90;;;;;;5053737;28;20422;-79
2023/12/10 11:39:48;;;;;;;6.63;3.33;;;10.10;99.90;;;;;;5052221;28;20457;-81
2023/12/10 11:45:50;;;;;;;5.27;2.10;;;10.00;99.90;;;;;;5053135;28;20430;-79
2023/12/10 11:48:56;;;;;;;4.67;2.10;;;10.00;99.90;;;;;;5046220;28;20449;-82
2023/12/10 11:51:40;;;;;;;5.67;2.47;;;10.00;99.90;;;;;;5044710;28;20493;-80
2023/12/10 11:54:22;;;;;;;6.43;3.20;;;10.10;99.90;;;;;;5056678;28;20464;-80
2023/12/10 11:57:14;;;;;;;5.90;2.30;;;10.10;99.90;;;;;;5060963;28;20437;-81
2023/12/10 12:00:04;;;;;;;9.13;2.90;;;10.10;99.90;;;;;;5059306;28;20523;-81
2023/12/10 12:02:56;;;;;;;11.10;2.30;;;10.10;99.90;;;;;;5063330;28;20453;-81
2023/12/10 12:05:38;;;;;;;11.20;3.23;;;10.20;99.90;;;;;;5058579;28;20468;-79
2023/12/10 12:08:15;;;;;;;7.83;2.93;;;10.20;99.90;;;;;;5044610;28;20468;-80
2023/12/10 12:18:00;;;;;;;9.63;3.13;;;10.00;99.90;;;;;;5012511;28;20424;-79
2023/12/10 12:20:52;;;;;;;13.17;4.20;;;10.30;99.90;;;;;;4970116;28;20483;-80
2023/12/10 12:23:31;;;;;;;10.70;2.70;;;10.30;99.90;;;;;;5002852;28;20466;-80
2023/12/10 13:00:16;;;;;;;7.13;2.30;;;10.30;99.90;;;;;;4906680;29;20464;-82
2023/12/10 13:03:28;;;;;;;11.83;3.03;;;10.40;99.90;;;;;;4923076;29;20450;-82
2023/12/10 13:16:31;;;;;;;;;;;;;;;;;;;;;
2023/12/10 13:19:47;;;;;;;14.70;3.47;;;10.40;99.90;;;;;;4998037;28;20449;-81
2023/12/10 13:22:16;;;;;;;6.10;2.40;;;10.40;99.90;;;;;;5055909;28;20430;-81
2023/12/10 13:25:01;;;;;;;10.50;3.10;;;10.50;99.90;;;;;;5054845;28;20450;-79
2023/12/10 13:30:57;;;;;;;5.70;2.43;;;10.30;99.90;;;;;;5050686;28;21015;-82
2023/12/10 13:33:56;;;;;;;7.10;2.23;;;10.40;99.90;;;;;;5016454;28;20436;-80
2023/12/10 13:36:47;;;;;;;8.13;2.10;;;10.30;99.90;;;;;;5043822;28;20447;-80
2023/12/10 13:39:32;;;;;;;5.07;2.40;;;10.30;99.90;;;;;;5047886;28;20437;-81
2023/12/10 13:42:22;;;;;;;11.27;2.70;;;10.30;99.90;;;;;;5045221;28;20536;-80
2023/12/10 13:45:04;;;;;;;5.63;2.30;;;10.30;99.90;;;;;;5054704;28;20492;-79
2023/12/10 13:47:47;;;;;;;6.03;2.67;;;10.30;99.90;;;;;;5046126;28;20438;-80
2023/12/10 13:50:33;;;;;;;5.50;2.47;;;10.30;99.90;;;;;;5049649;28;20541;-80
2023/12/10 13:53:15;;;;;;;5.30;2.13;;;10.30;99.90;;;;;;5050879;28;20449;-80
2023/12/10 13:55:56;;;;;;;10.20;2.83;;;10.30;99.90;;;;;;5050709;28;20449;-82
2023/12/10 14:01:48;;;;;;;9.33;2.97;;;10.20;99.90;;;;;;5030250;28;20841;-80
2023/12/10 14:04:26;;;;;;;8.57;2.60;;;10.20;99.90;;;;;;5028865;28;20539;-81
2023/12/10 14:10:18;;;;;;;7.83;3.03;;;10.30;99.90;;;;;;5026517;28;20517;-81
2023/12/10 14:13:10;;;;;;;6.50;2.30;;;10.30;99.90;;;;;;5033964;28;20438;-79
2023/12/10 14:15:57;;;;;;;4.67;2.77;;;10.30;99.90;;;;;;5036114;28;20447;-80
2023/12/10 14:18:44;;;;;;;5.97;2.63;;;10.30;99.90;;;;;;5031387;28;20454;-80
2023/12/10 14:21:21;;;;;;;6.37;2.40;;;10.30;99.90;;;;;;5034921;28;20525;-81
2023/12/10 14:24:02;;;;;;;8.60;2.60;;;10.30;99.90;;;;;;5039079;28;20439;-83
2023/12/10 14:57:27;;;;;;;11.50;3.40;;;10.20;99.90;;;;;;4853778;29;20459;-80
2023/12/10 15:00:18;;;;;;;9.63;3.80;;;10.20;99.90;;;;;;4983068;28;20476;-81
2023/12/10 15:03:21;;;;;;;10.27;3.80;;;10.20;99.90;;;;;;4984286;28;20469;-80
2023/12/10 15:06:18;;;;;;;6.33;3.30;;;10.20;99.90;;;;;;5028598;28;20496;-81
2023/12/10 15:09:17;;;;;;;8.63;4.07;;;10.10;99.90;;;;;;5036294;28;20501;-79
2023/12/10 15:12:28;;;;;;;5.97;3.40;;;10.10;99.90;;;;;;5023202;28;20533;-84
2023/12/10 15:15:18;;;;;;;8.20;3.30;;;10.10;99.90;;;;;;5028439;28;20450;-81
2023/12/10 15:18:02;;;;;;;6.33;3.00;;;10.10;99.90;;;;;;5029339;28;20955;-81
2023/12/10 15:23:41;;;;;;;7.27;4.03;;;10.00;99.90;;;;;;5033310;28;20427;-81
2023/12/10 15:26:38;;;;;;;11.17;3.73;;;10.00;99.90;;;;;;5039668;28;20471;-81
2023/12/10 15:36:07;;;;;;;11.50;3.77;;;9.70;99.90;;;;;;4961759;28;20440;-82
2023/12/10 15:42:51;;;;;;;7.47;3.20;;;9.90;99.90;;;;;;4793464;30;20473;-80
2023/12/10 16:02:55;;;;;;;8.77;3.20;;;9.80;99.90;;;;;;4842265;29;20464;-83
2023/12/10 16:08:34;;;;;;;13.60;3.50;;;9.80;99.90;;;;;;5002325;28;20468;-81
2023/12/10 16:11:35;;;;;;;10.00;3.03;;;9.90;99.90;;;;;;5011977;28;20483;-82
2023/12/10 16:14:44;;;;;;;10.50;3.57;;;9.80;99.90;;;;;;5026665;28;20461;-80
2023/12/10 16:47:25;;;;;;;6.07;3.03;;;9.70;99.90;;;;;;5822057;22;9055966;-79
2023/12/10 16:50:18;;;;;;;9.20;3.23;;;9.50;99.90;;;;;;6237983;22;20225;-79
2023/12/10 16:53:19;;;;;;;8.57;3.27;;;9.70;99.90;;;;;;6239475;23;20687;-81
2023/12/10 16:56:14;;;;;;;7.57;2.90;;;9.60;99.90;;;;;;6236326;22;20436;-82
2023/12/10 16:59:31;;;;;;;9.43;2.93;;;9.60;99.90;;;;;;6235845;23;20437;-82
2023/12/10 17:02:29;;;;;;;7.57;2.40;;;9.60;99.90;;;;;;6221158;22;20409;-82
2023/12/10 17:05:29;;;;;;;;;;;;;;;;;;;;;
2023/12/10 19:14:50;;;;;;;6.73;2.83;;;10.10;99.90;;;;;;6222259;22;2215189;-78
2023/12/10 19:17:35;;;;;;;5.23;2.60;;;10.10;99.90;;;;;;6274060;23;20189;-82
2023/12/10 19:24:25;;;;;;;6.70;2.20;;;10.10;99.90;;;;;;6155866;23;20456;-80
2023/12/10 19:27:23;;;;;;;4.83;2.27;;;10.10;99.90;;;;;;6174255;23;20415;-80
2023/12/10 19:30:27;;;;;;;5.80;3.30;;;10.20;99.90;;;;;;6176988;23;20509;-81
2023/12/10 19:33:16;;;;;;;6.17;4.03;;;10.20;99.90;;;;;;6171227;23;20417;-81
2023/12/10 19:36:04;;;;;;;4.20;2.37;;;10.20;99.90;;;;;;6194878;23;20419;-78
2023/12/10 19:38:47;;;;;;;6.50;4.00;;;10.30;99.90;;;;;;6272220;23;20671;-79
2023/12/10 19:41:14;;;;;;;5.40;2.20;;;10.30;99.90;;;;;;6272992;22;20444;-82
2023/12/10 19:43:49;;;;;;;3.50;1.80;;;10.20;99.90;;;;;;6272408;23;20407;-79
2023/12/10 19:46:40;;;;;;;6.63;2.47;;;10.50;99.90;;;;;;6272232;23;20408;-80
2023/12/10 19:49:39;;;;;;;3.77;2.10;;;10.50;99.90;;;;;;6268780;22;20918;-80
2023/12/10 19:52:31;;;;;;;6.07;2.60;;;10.30;99.90;;;;;;6267889;23;20381;-82
2023/12/10 20:01:37;;;;;;;;;;;;;;;;;;;;;
2023/12/10 20:04:34;;;;;;;4.90;1.90;;;10.40;99.90;;;;;;6205899;23;20412;-82
2023/12/10 20:07:57;;;;;;;4.13;1.93;;;10.40;99.90;;;;;;6263943;23;20400;-80
2023/12/10 20:11:04;;;;;;;3.67;2.30;;;10.50;99.90;;;;;;6207258;23;20439;-79
2023/12/10 20:14:10;;;;;;;4.03;1.73;;;10.20;99.90;;;;;;6266743;23;20428;-81
2023/12/10 20:25:54;;;;;;;3.50;1.97;;;10.50;99.90;;;;;;6139037;23;20404;-81
2023/12/10 20:29:00;;;;;;;4.70;1.83;;;10.50;99.90;;;;;;6149638;23;20389;-80
2023/12/10 20:37:15;;;;;;;2.47;1.80;;;10.50;99.90;;;;;;6235389;23;20401;-82
2023/12/10 20:39:57;;;;;;;2.00;1.80;;;10.50;99.90;;;;;;6237814;23;20448;-80
2023/12/10 20:42:31;;;;;;;2.87;1.80;;;10.50;99.90;;;;;;6238609;23;20416;-81
2023/12/10 20:45:18;;;;;;;3.97;1.90;;;10.50;99.90;;;;;;6238994;23;20410;-81
2023/12/10 20:58:01;;;;;;;2.30;1.60;;;10.20;99.90;;;;;;6185478;23;20410;-82
2023/12/10 21:01:05;;;;;;;3.50;1.40;;;10.40;99.90;;;;;;6241007;23;20457;-82
2023/12/10 21:06:59;;;;;;;2.90;1.40;;;10.60;99.90;;;;;;6090557;23;20435;-80
2023/12/10 21:09:45;;;;;;;1.60;1.50;;;10.60;99.90;;;;;;6145247;23;20413;-83
2023/12/10 21:29:07;;;;;;;1.70;1.00;;;10.70;99.90;;;;;;6067169;23;20406;-82
2023/12/10 22:11:35;;;;;;;;;;;;;;;;;;;;;
2023/12/10 22:23:57;;;;;;;0.90;0.90;;;10.60;99.90;;;;;;6282028;22;20440;-82
2023/12/10 22:46:29;;;;;;;3.23;1.17;;;10.40;99.90;;;;;;5928552;23;20477;-83
2023/12/10 23:00:47;;;;;;;0.93;0.87;;;10.20;99.90;;;;;;5904530;22;20460;-82
2023/12/10 23:13:05;;;;;;;0.70;0.70;;;9.80;99.90;;;;;;5966813;24;20402;-79
2023/12/10 23:45:17;;;;;;;1.47;0.93;;;9.70;99.90;;;;;;5937472;24;20414;-81
2023/12/10 23:57:53;;;;;;;1.20;1.20;;;9.70;99.90;;;;;;6257383;22;20480;-80
